sensor_id;sensor_type;location;lat;lon;timestamp;temperature;humidity
5011;DHT22;2524;54.364;10.072;2023-06-22T00:02:08;19.20;99.90
5011;DHT22;2524;54.364;10.072;2023-06-22T00:04:34;19.20;99.90
5011;DHT22;2524;54.364;10.072;2023-06-22T00:06:59;19.30;99.90
5011;DHT22;2524;54.364;10.072;2023-06-22T00:09:25;19.20;99.90
5011;DHT22;2524;54.364;10.072;2023-06-22T00:11:51;19.10;99.90
5011;DHT22;2524;54.364;10.072;2023-06-22T00:14:16;19.10;99.90
5011;DHT22;2524;54.364;10.072;2023-06-22T00:16:42;19.00;99.90
5011;DHT22;2524;54.364;10.072;2023-06-22T00:19:08;19.00;99.90
5011;DHT22;2524;54.364;10.072;2023-06-22T00:21:37;19.00;99.90
5011;DHT22;2524;54.364;10.072;2023-06-22T00:24:04;18.90;99.90
5011;DHT22;2524;54.364;10.072;2023-06-22T00:26:29;18.90;99.90
5011;DHT22;2524;54.364;10.072;2023-06-22T00:28:55;18.90;99.90
5011;DHT22;2524;54.364;10.072;2023-06-22T00:31:21;18.90;99.90
5011;DHT22;2524;54.364;10.072;2023-06-22T00:33:46;18.80;99.90
5011;DHT22;2524;54.364;10.072;2023-06-22T00:36:12;18.70;99.90
5011;DHT22;2524;54.364;10.072;2023-06-22T00:38:41;18.70;99.90
5011;DHT22;2524;54.364;10.072;2023-06-22T00:41:07;18.70;99.90
5011;DHT22;2524;54.364;10.072;2023-06-22T00:43:33;18.70;99.90
5011;DHT22;2524;54.364;10.072;2023-06-22T00:45:58;18.60;99.90
5011;DHT22;2524;54.364;10.072;2023-06-22T00:48:24;18.60;99.90
5011;DHT22;2524;54.364;10.072;2023-06-22T00:50:50;18.50;99.90
5011;DHT22;2524;54.364;10.072;2023-06-22T00:53:19;18.50;99.90
5011;DHT22;2524;54.364;10.072;2023-06-22T00:55:45;18.50;99.90
5011;DHT22;2524;54.364;10.072;2023-06-22T00:58:13;18.60;99.90
5011;DHT22;2524;54.364;10.072;2023-06-22T01:00:39;18.50;99.90
5011;DHT22;2524;54.364;10.072;2023-06-22T01:03:05;18.50;99.90
5011;DHT22;2524;54.364;10.072;2023-06-22T01:05:35;18.50;99.90
5011;DHT22;2524;54.364;10.072;2023-06-22T01:10:49;18.50;99.90
5011;DHT22;2524;54.364;10.072;2023-06-22T01:16:16;18.50;99.90
5011;DHT22;2524;54.364;10.072;2023-06-22T01:18:43;18.40;99.90
5011;DHT22;2524;54.364;10.072;2023-06-22T01:21:14;18.50;99.90
5011;DHT22;2524;54.364;10.072;2023-06-22T01:26:43;18.40;99.90
5011;DHT22;2524;54.364;10.072;2023-06-22T01:29:15;18.40;99.90
5011;DHT22;2524;54.364;10.072;2023-06-22T01:31:42;18.30;99.90
5011;DHT22;2524;54.364;10.072;2023-06-22T01:34:10;18.30;99.90
5011;DHT22;2524;54.364;10.072;2023-06-22T01:36:36;18.20;99.90
5011;DHT22;2524;54.364;10.072;2023-06-22T01:39:05;18.20;99.90
5011;DHT22;2524;54.364;10.072;2023-06-22T01:41:37;18.30;99.90
5011;DHT22;2524;54.364;10.072;2023-06-22T01:44:05;18.20;99.90
5011;DHT22;2524;54.364;10.072;2023-06-22T01:46:34;18.10;99.90
5011;DHT22;2524;54.364;10.072;2023-06-22T01:49:00;18.10;99.90
5011;DHT22;2524;54.364;10.072;2023-06-22T01:51:26;18.10;99.90
5011;DHT22;2524;54.364;10.072;2023-06-22T01:53:52;18.00;99.90
5011;DHT22;2524;54.364;10.072;2023-06-22T01:56:17;18.00;99.90
5011;DHT22;2524;54.364;10.072;2023-06-22T01:59:29;18.00;99.90
5011;DHT22;2524;54.364;10.072;2023-06-22T02:01:59;17.90;99.90
5011;DHT22;2524;54.364;10.072;2023-06-22T02:04:36;17.80;99.90
5011;DHT22;2524;54.364;10.072;2023-06-22T02:07:07;17.80;99.90
5011;DHT22;2524;54.364;10.072;2023-06-22T02:09:35;17.70;99.90
5011;DHT22;2524;54.364;10.072;2023-06-22T02:12:03;17.60;99.90
5011;DHT22;2524;54.364;10.072;2023-06-22T02:14:30;17.60;99.90
5011;DHT22;2524;54.364;10.072;2023-06-22T02:16:56;17.50;99.90
5011;DHT22;2524;54.364;10.072;2023-06-22T02:19:24;17.50;99.90
5011;DHT22;2524;54.364;10.072;2023-06-22T02:21:51;17.60;99.90
5011;DHT22;2524;54.364;10.072;2023-06-22T02:24:16;17.50;99.90
5011;DHT22;2524;54.364;10.072;2023-06-22T02:26:43;17.40;99.90
5011;DHT22;2524;54.364;10.072;2023-06-22T02:29:10;17.40;99.90
5011;DHT22;2524;54.364;10.072;2023-06-22T02:31:36;17.40;99.90
5011;DHT22;2524;54.364;10.072;2023-06-22T02:34:02;17.60;99.90
5011;DHT22;2524;54.364;10.072;2023-06-22T02:36:27;17.40;99.90
5011;DHT22;2524;54.364;10.072;2023-06-22T02:38:56;17.50;99.90
5011;DHT22;2524;54.364;10.072;2023-06-22T02:41:24;17.50;99.90
5011;DHT22;2524;54.364;10.072;2023-06-22T02:43:50;17.70;99.90
5011;DHT22;2524;54.364;10.072;2023-06-22T02:46:15;17.60;99.90
5011;DHT22;2524;54.364;10.072;2023-06-22T02:48:41;17.60;99.90
5011;DHT22;2524;54.364;10.072;2023-06-22T02:51:07;17.60;99.90
5011;DHT22;2524;54.364;10.072;2023-06-22T02:53:33;17.60;99.90
5011;DHT22;2524;54.364;10.072;2023-06-22T02:56:01;17.50;99.90
5011;DHT22;2524;54.364;10.072;2023-06-22T02:58:28;17.50;99.90
5011;DHT22;2524;54.364;10.072;2023-06-22T03:00:54;17.50;99.90
5011;DHT22;2524;54.364;10.072;2023-06-22T03:03:19;17.40;99.90
5011;DHT22;2524;54.364;10.072;2023-06-22T03:05:45;17.50;99.90
5011;DHT22;2524;54.364;10.072;2023-06-22T03:08:11;17.50;99.90
5011;DHT22;2524;54.364;10.072;2023-06-22T03:10:36;17.60;99.90
5011;DHT22;2524;54.364;10.072;2023-06-22T03:13:03;17.40;99.90
5011;DHT22;2524;54.364;10.072;2023-06-22T03:15:28;17.40;99.90
5011;DHT22;2524;54.364;10.072;2023-06-22T03:17:58;17.40;99.90
5011;DHT22;2524;54.364;10.072;2023-06-22T03:20:23;17.50;99.90
5011;DHT22;2524;54.364;10.072;2023-06-22T03:22:50;17.40;99.90
5011;DHT22;2524;54.364;10.072;2023-06-22T03:25:16;17.40;99.90
5011;DHT22;2524;54.364;10.072;2023-06-22T03:27:42;17.40;99.90
5011;DHT22;2524;54.364;10.072;2023-06-22T03:30:10;17.40;99.90
5011;DHT22;2524;54.364;10.072;2023-06-22T03:32:35;17.40;99.90
5011;DHT22;2524;54.364;10.072;2023-06-22T03:35:01;17.40;99.90
5011;DHT22;2524;54.364;10.072;2023-06-22T03:37:27;17.50;99.90
5011;DHT22;2524;54.364;10.072;2023-06-22T03:39:53;17.50;99.90
5011;DHT22;2524;54.364;10.072;2023-06-22T03:42:19;17.40;99.90
5011;DHT22;2524;54.364;10.072;2023-06-22T03:44:45;17.50;99.90
5011;DHT22;2524;54.364;10.072;2023-06-22T03:47:10;17.40;99.90
5011;DHT22;2524;54.364;10.072;2023-06-22T03:49:36;17.50;99.90
5011;DHT22;2524;54.364;10.072;2023-06-22T03:52:02;17.50;99.90
5011;DHT22;2524;54.364;10.072;2023-06-22T03:54:29;17.50;99.90
5011;DHT22;2524;54.364;10.072;2023-06-22T03:56:56;17.70;99.90
5011;DHT22;2524;54.364;10.072;2023-06-22T03:59:22;17.60;99.90
5011;DHT22;2524;54.364;10.072;2023-06-22T04:01:47;17.60;99.90
5011;DHT22;2524;54.364;10.072;2023-06-22T04:04:13;17.70;99.90
5011;DHT22;2524;54.364;10.072;2023-06-22T04:06:39;17.80;99.90
5011;DHT22;2524;54.364;10.072;2023-06-22T04:09:06;17.80;99.90
5011;DHT22;2524;54.364;10.072;2023-06-22T04:11:31;17.70;99.90
5011;DHT22;2524;54.364;10.072;2023-06-22T04:13:57;17.70;99.90
5011;DHT22;2524;54.364;10.072;2023-06-22T04:16:22;17.70;99.90
5011;DHT22;2524;54.364;10.072;2023-06-22T04:18:48;17.70;99.90
5011;DHT22;2524;54.364;10.072;2023-06-22T04:21:14;17.60;99.90
5011;DHT22;2524;54.364;10.072;2023-06-22T04:23:39;17.70;99.90
5011;DHT22;2524;54.364;10.072;2023-06-22T04:26:05;17.80;99.90
5011;DHT22;2524;54.364;10.072;2023-06-22T04:28:30;17.80;99.90
5011;DHT22;2524;54.364;10.072;2023-06-22T04:31:03;17.80;99.90
5011;DHT22;2524;54.364;10.072;2023-06-22T04:33:29;17.80;99.90
5011;DHT22;2524;54.364;10.072;2023-06-22T04:35:58;17.90;99.90
5011;DHT22;2524;54.364;10.072;2023-06-22T04:38:24;17.90;99.90
5011;DHT22;2524;54.364;10.072;2023-06-22T04:40:50;17.80;99.90
5011;DHT22;2524;54.364;10.072;2023-06-22T04:43:16;17.80;99.90
5011;DHT22;2524;54.364;10.072;2023-06-22T04:45:41;17.90;99.90
5011;DHT22;2524;54.364;10.072;2023-06-22T04:48:07;17.80;99.90
5011;DHT22;2524;54.364;10.072;2023-06-22T04:50:36;17.80;99.90
5011;DHT22;2524;54.364;10.072;2023-06-22T04:53:02;17.80;99.90
5011;DHT22;2524;54.364;10.072;2023-06-22T04:55:31;18.00;99.90
5011;DHT22;2524;54.364;10.072;2023-06-22T04:57:57;18.00;99.90
5011;DHT22;2524;54.364;10.072;2023-06-22T05:00:30;17.90;99.90
5011;DHT22;2524;54.364;10.072;2023-06-22T05:02:56;17.90;99.90
5011;DHT22;2524;54.364;10.072;2023-06-22T05:05:23;18.00;99.90
5011;DHT22;2524;54.364;10.072;2023-06-22T05:07:50;18.00;99.90
5011;DHT22;2524;54.364;10.072;2023-06-22T05:10:18;18.10;99.90
5011;DHT22;2524;54.364;10.072;2023-06-22T05:12:44;18.00;99.90
5011;DHT22;2524;54.364;10.072;2023-06-22T05:15:10;18.10;99.90
5011;DHT22;2524;54.364;10.072;2023-06-22T05:17:36;18.00;99.90
5011;DHT22;2524;54.364;10.072;2023-06-22T05:20:09;18.10;99.90
5011;DHT22;2524;54.364;10.072;2023-06-22T05:22:34;18.10;99.90
5011;DHT22;2524;54.364;10.072;2023-06-22T05:25:00;18.20;99.90
5011;DHT22;2524;54.364;10.072;2023-06-22T05:27:27;18.20;99.90
5011;DHT22;2524;54.364;10.072;2023-06-22T05:29:52;18.20;99.90
5011;DHT22;2524;54.364;10.072;2023-06-22T05:32:18;18.30;99.90
5011;DHT22;2524;54.364;10.072;2023-06-22T05:34:44;18.30;99.90
5011;DHT22;2524;54.364;10.072;2023-06-22T05:37:10;18.30;99.90
5011;DHT22;2524;54.364;10.072;2023-06-22T05:39:36;18.30;99.90
5011;DHT22;2524;54.364;10.072;2023-06-22T05:42:04;18.30;99.90
5011;DHT22;2524;54.364;10.072;2023-06-22T05:44:30;18.40;99.90
5011;DHT22;2524;54.364;10.072;2023-06-22T05:46:56;18.40;99.90
5011;DHT22;2524;54.364;10.072;2023-06-22T05:49:21;18.40;99.90
5011;DHT22;2524;54.364;10.072;2023-06-22T05:51:47;18.50;99.90
5011;DHT22;2524;54.364;10.072;2023-06-22T05:54:13;18.50;99.90
5011;DHT22;2524;54.364;10.072;2023-06-22T05:56:41;18.50;99.90
5011;DHT22;2524;54.364;10.072;2023-06-22T05:59:06;18.60;99.90
5011;DHT22;2524;54.364;10.072;2023-06-22T06:01:32;18.50;99.90
5011;DHT22;2524;54.364;10.072;2023-06-22T06:04:04;18.60;99.90
5011;DHT22;2524;54.364;10.072;2023-06-22T06:06:30;18.70;99.90
5011;DHT22;2524;54.364;10.072;2023-06-22T06:08:55;18.80;99.90
5011;DHT22;2524;54.364;10.072;2023-06-22T06:11:22;18.80;99.90
5011;DHT22;2524;54.364;10.072;2023-06-22T06:13:47;18.80;99.90
5011;DHT22;2524;54.364;10.072;2023-06-22T06:16:13;18.80;99.90
5011;DHT22;2524;54.364;10.072;2023-06-22T06:18:38;18.90;99.90
5011;DHT22;2524;54.364;10.072;2023-06-22T06:21:04;18.80;99.90
5011;DHT22;2524;54.364;10.072;2023-06-22T06:23:30;19.00;99.90
5011;DHT22;2524;54.364;10.072;2023-06-22T06:25:55;19.00;99.90
5011;DHT22;2524;54.364;10.072;2023-06-22T06:28:22;19.10;99.90
5011;DHT22;2524;54.364;10.072;2023-06-22T06:30:47;19.00;99.90
5011;DHT22;2524;54.364;10.072;2023-06-22T06:33:13;19.10;99.90
5011;DHT22;2524;54.364;10.072;2023-06-22T06:35:39;19.10;99.90
5011;DHT22;2524;54.364;10.072;2023-06-22T06:38:04;19.20;99.90
5011;DHT22;2524;54.364;10.072;2023-06-22T06:40:30;19.30;99.90
5011;DHT22;2524;54.364;10.072;2023-06-22T06:42:56;19.30;99.90
5011;DHT22;2524;54.364;10.072;2023-06-22T06:45:22;19.30;99.90
5011;DHT22;2524;54.364;10.072;2023-06-22T06:47:49;19.40;99.90
5011;DHT22;2524;54.364;10.072;2023-06-22T06:50:15;19.40;99.90
5011;DHT22;2524;54.364;10.072;2023-06-22T06:52:41;19.50;99.90
5011;DHT22;2524;54.364;10.072;2023-06-22T06:55:08;19.50;99.90
5011;DHT22;2524;54.364;10.072;2023-06-22T06:57:37;19.60;99.90
5011;DHT22;2524;54.364;10.072;2023-06-22T07:00:12;19.60;99.90
5011;DHT22;2524;54.364;10.072;2023-06-22T07:02:43;19.70;99.90
5011;DHT22;2524;54.364;10.072;2023-06-22T07:05:10;19.70;99.90
5011;DHT22;2524;54.364;10.072;2023-06-22T07:07:36;19.80;99.90
5011;DHT22;2524;54.364;10.072;2023-06-22T07:10:02;19.90;99.90
5011;DHT22;2524;54.364;10.072;2023-06-22T07:12:28;19.90;99.90
5011;DHT22;2524;54.364;10.072;2023-06-22T07:14:57;20.00;99.90
5011;DHT22;2524;54.364;10.072;2023-06-22T07:17:25;20.10;99.90
5011;DHT22;2524;54.364;10.072;2023-06-22T07:19:51;20.00;99.90
5011;DHT22;2524;54.364;10.072;2023-06-22T07:22:16;20.20;99.90
5011;DHT22;2524;54.364;10.072;2023-06-22T07:24:42;20.10;99.90
5011;DHT22;2524;54.364;10.072;2023-06-22T07:27:07;20.20;99.90
5011;DHT22;2524;54.364;10.072;2023-06-22T07:29:36;20.30;99.90
5011;DHT22;2524;54.364;10.072;2023-06-22T07:32:02;20.20;99.90
5011;DHT22;2524;54.364;10.072;2023-06-22T07:34:30;20.30;99.90
5011;DHT22;2524;54.364;10.072;2023-06-22T07:36:55;20.30;99.90
5011;DHT22;2524;54.364;10.072;2023-06-22T07:39:21;20.50;99.90
5011;DHT22;2524;54.364;10.072;2023-06-22T07:41:51;20.50;99.90
5011;DHT22;2524;54.364;10.072;2023-06-22T07:44:16;20.50;99.90
5011;DHT22;2524;54.364;10.072;2023-06-22T07:46:42;20.40;99.90
5011;DHT22;2524;54.364;10.072;2023-06-22T07:49:07;20.50;99.90
5011;DHT22;2524;54.364;10.072;2023-06-22T07:51:34;20.60;99.90
5011;DHT22;2524;54.364;10.072;2023-06-22T07:54:00;20.60;99.90
5011;DHT22;2524;54.364;10.072;2023-06-22T07:56:25;20.70;99.90
5011;DHT22;2524;54.364;10.072;2023-06-22T07:58:51;20.80;99.90
5011;DHT22;2524;54.364;10.072;2023-06-22T08:01:16;20.70;99.90
5011;DHT22;2524;54.364;10.072;2023-06-22T08:03:43;20.80;99.90
5011;DHT22;2524;54.364;10.072;2023-06-22T08:06:09;20.90;99.90
5011;DHT22;2524;54.364;10.072;2023-06-22T08:08:37;20.90;99.90
5011;DHT22;2524;54.364;10.072;2023-06-22T08:11:03;21.00;99.90
5011;DHT22;2524;54.364;10.072;2023-06-22T08:13:29;21.00;99.90
5011;DHT22;2524;54.364;10.072;2023-06-22T08:15:55;21.10;99.90
5011;DHT22;2524;54.364;10.072;2023-06-22T08:18:20;21.20;99.90
5011;DHT22;2524;54.364;10.072;2023-06-22T08:20:46;21.20;99.90
5011;DHT22;2524;54.364;10.072;2023-06-22T08:23:11;21.30;99.90
5011;DHT22;2524;54.364;10.072;2023-06-22T08:25:37;21.40;99.90
5011;DHT22;2524;54.364;10.072;2023-06-22T08:28:04;21.40;99.90
5011;DHT22;2524;54.364;10.072;2023-06-22T08:30:30;21.40;99.90
5011;DHT22;2524;54.364;10.072;2023-06-22T08:32:56;21.50;99.90
5011;DHT22;2524;54.364;10.072;2023-06-22T08:35:24;21.50;99.90
5011;DHT22;2524;54.364;10.072;2023-06-22T08:37:50;21.60;99.90
5011;DHT22;2524;54.364;10.072;2023-06-22T08:40:18;21.60;99.90
5011;DHT22;2524;54.364;10.072;2023-06-22T08:42:45;21.70;99.90
5011;DHT22;2524;54.364;10.072;2023-06-22T08:45:11;21.80;99.90
5011;DHT22;2524;54.364;10.072;2023-06-22T08:47:37;21.80;99.90
5011;DHT22;2524;54.364;10.072;2023-06-22T08:50:03;21.90;99.90
5011;DHT22;2524;54.364;10.072;2023-06-22T08:52:29;21.90;99.90
5011;DHT22;2524;54.364;10.072;2023-06-22T08:54:54;21.90;99.90
5011;DHT22;2524;54.364;10.072;2023-06-22T08:57:21;22.00;99.90
5011;DHT22;2524;54.364;10.072;2023-06-22T08:59:46;22.00;99.90
5011;DHT22;2524;54.364;10.072;2023-06-22T09:02:12;22.10;99.90
5011;DHT22;2524;54.364;10.072;2023-06-22T09:04:37;22.10;99.90
5011;DHT22;2524;54.364;10.072;2023-06-22T09:07:03;22.20;99.90
5011;DHT22;2524;54.364;10.072;2023-06-22T09:09:29;22.30;99.90
5011;DHT22;2524;54.364;10.072;2023-06-22T09:11:55;22.30;99.90
5011;DHT22;2524;54.364;10.072;2023-06-22T09:14:20;22.40;99.90
5011;DHT22;2524;54.364;10.072;2023-06-22T09:16:46;22.40;99.90
5011;DHT22;2524;54.364;10.072;2023-06-22T09:19:11;22.50;99.90
5011;DHT22;2524;54.364;10.072;2023-06-22T09:21:37;22.50;99.90
5011;DHT22;2524;54.364;10.072;2023-06-22T09:24:03;22.50;99.90
5011;DHT22;2524;54.364;10.072;2023-06-22T09:26:29;22.60;99.90
5011;DHT22;2524;54.364;10.072;2023-06-22T09:28:54;22.70;99.90
5011;DHT22;2524;54.364;10.072;2023-06-22T09:31:20;22.80;99.90
5011;DHT22;2524;54.364;10.072;2023-06-22T09:33:54;22.80;99.90
5011;DHT22;2524;54.364;10.072;2023-06-22T09:36:20;22.80;99.90
5011;DHT22;2524;54.364;10.072;2023-06-22T09:38:46;22.90;99.90
5011;DHT22;2524;54.364;10.072;2023-06-22T09:41:11;23.00;99.90
5011;DHT22;2524;54.364;10.072;2023-06-22T09:43:37;23.00;99.90
5011;DHT22;2524;54.364;10.072;2023-06-22T09:46:02;23.10;99.90
5011;DHT22;2524;54.364;10.072;2023-06-22T09:48:29;23.10;99.90
5011;DHT22;2524;54.364;10.072;2023-06-22T09:50:57;23.20;99.90
5011;DHT22;2524;54.364;10.072;2023-06-22T09:53:23;23.30;99.90
5011;DHT22;2524;54.364;10.072;2023-06-22T09:55:48;23.40;99.90
5011;DHT22;2524;54.364;10.072;2023-06-22T09:58:14;23.40;99.90
5011;DHT22;2524;54.364;10.072;2023-06-22T10:00:39;23.50;99.90
5011;DHT22;2524;54.364;10.072;2023-06-22T10:03:06;23.50;99.90
5011;DHT22;2524;54.364;10.072;2023-06-22T10:05:32;23.60;99.90
5011;DHT22;2524;54.364;10.072;2023-06-22T10:07:57;23.50;99.70
5011;DHT22;2524;54.364;10.072;2023-06-22T10:10:23;23.50;99.30
5011;DHT22;2524;54.364;10.072;2023-06-22T10:12:56;23.60;99.40
5011;DHT22;2524;54.364;10.072;2023-06-22T10:15:22;23.60;99.20
5011;DHT22;2524;54.364;10.072;2023-06-22T10:17:48;23.60;99.00
5011;DHT22;2524;54.364;10.072;2023-06-22T10:20:14;23.70;98.60
5011;DHT22;2524;54.364;10.072;2023-06-22T10:22:41;23.70;98.70
5011;DHT22;2524;54.364;10.072;2023-06-22T10:25:07;23.70;98.70
5011;DHT22;2524;54.364;10.072;2023-06-22T10:27:33;23.80;98.60
5011;DHT22;2524;54.364;10.072;2023-06-22T10:29:59;23.90;98.30
5011;DHT22;2524;54.364;10.072;2023-06-22T10:32:24;24.00;98.20
5011;DHT22;2524;54.364;10.072;2023-06-22T10:34:50;24.10;97.90
5011;DHT22;2524;54.364;10.072;2023-06-22T10:37:15;24.10;97.40
5011;DHT22;2524;54.364;10.072;2023-06-22T10:39:41;24.30;97.70
5011;DHT22;2524;54.364;10.072;2023-06-22T10:42:06;24.40;97.80
5011;DHT22;2524;54.364;10.072;2023-06-22T10:44:32;24.40;97.30
5011;DHT22;2524;54.364;10.072;2023-06-22T10:46:57;24.40;97.20
5011;DHT22;2524;54.364;10.072;2023-06-22T10:49:23;24.50;96.80
5011;DHT22;2524;54.364;10.072;2023-06-22T10:51:49;24.40;96.40
5011;DHT22;2524;54.364;10.072;2023-06-22T10:54:14;24.40;96.30
5011;DHT22;2524;54.364;10.072;2023-06-22T10:56:42;24.50;96.10
5011;DHT22;2524;54.364;10.072;2023-06-22T10:59:08;24.50;96.00
5011;DHT22;2524;54.364;10.072;2023-06-22T11:01:33;24.40;95.70
5011;DHT22;2524;54.364;10.072;2023-06-22T11:03:59;24.40;95.60
5011;DHT22;2524;54.364;10.072;2023-06-22T11:06:24;24.40;95.70
5011;DHT22;2524;54.364;10.072;2023-06-22T11:08:50;24.40;95.40
5011;DHT22;2524;54.364;10.072;2023-06-22T11:11:15;24.40;94.80
5011;DHT22;2524;54.364;10.072;2023-06-22T11:13:43;24.30;94.50
5011;DHT22;2524;54.364;10.072;2023-06-22T11:16:09;24.20;94.10
5011;DHT22;2524;54.364;10.072;2023-06-22T11:18:35;24.20;94.00
5011;DHT22;2524;54.364;10.072;2023-06-22T11:21:00;24.20;93.90
5011;DHT22;2524;54.364;10.072;2023-06-22T11:23:26;24.10;94.00
5011;DHT22;2524;54.364;10.072;2023-06-22T11:25:53;24.20;94.20
5011;DHT22;2524;54.364;10.072;2023-06-22T11:28:19;24.30;94.50
5011;DHT22;2524;54.364;10.072;2023-06-22T11:30:44;24.20;94.40
5011;DHT22;2524;54.364;10.072;2023-06-22T11:33:10;24.40;94.60
5011;DHT22;2524;54.364;10.072;2023-06-22T11:35:35;24.50;94.30
5011;DHT22;2524;54.364;10.072;2023-06-22T11:38:01;24.50;94.20
5011;DHT22;2524;54.364;10.072;2023-06-22T11:40:28;24.60;94.30
5011;DHT22;2524;54.364;10.072;2023-06-22T11:42:54;24.70;94.30
5011;DHT22;2524;54.364;10.072;2023-06-22T11:45:20;24.80;94.30
5011;DHT22;2524;54.364;10.072;2023-06-22T11:47:46;24.90;94.50
5011;DHT22;2524;54.364;10.072;2023-06-22T11:50:11;25.10;94.30
5011;DHT22;2524;54.364;10.072;2023-06-22T11:52:37;25.30;93.90
5011;DHT22;2524;54.364;10.072;2023-06-22T11:55:03;25.20;93.00
5011;DHT22;2524;54.364;10.072;2023-06-22T11:57:32;25.10;92.90
5011;DHT22;2524;54.364;10.072;2023-06-22T11:59:58;25.10;92.80
5011;DHT22;2524;54.364;10.072;2023-06-22T12:02:23;25.10;92.60
5011;DHT22;2524;54.364;10.072;2023-06-22T12:04:49;25.00;91.70
5011;DHT22;2524;54.364;10.072;2023-06-22T12:07:18;24.90;91.40
5011;DHT22;2524;54.364;10.072;2023-06-22T12:09:43;24.80;91.10
5011;DHT22;2524;54.364;10.072;2023-06-22T12:12:09;24.70;91.10
5011;DHT22;2524;54.364;10.072;2023-06-22T12:14:35;24.70;91.40
5011;DHT22;2524;54.364;10.072;2023-06-22T12:17:01;24.80;91.50
5011;DHT22;2524;54.364;10.072;2023-06-22T12:19:26;24.80;91.00
5011;DHT22;2524;54.364;10.072;2023-06-22T12:21:52;24.70;90.90
5011;DHT22;2524;54.364;10.072;2023-06-22T12:24:17;24.70;90.90
5011;DHT22;2524;54.364;10.072;2023-06-22T12:26:43;24.70;90.80
5011;DHT22;2524;54.364;10.072;2023-06-22T12:29:09;24.70;90.70
5011;DHT22;2524;54.364;10.072;2023-06-22T12:31:36;24.80;90.80
5011;DHT22;2524;54.364;10.072;2023-06-22T12:34:04;24.80;90.80
5011;DHT22;2524;54.364;10.072;2023-06-22T12:36:29;24.90;90.60
5011;DHT22;2524;54.364;10.072;2023-06-22T12:38:55;24.90;90.10
5011;DHT22;2524;54.364;10.072;2023-06-22T12:41:20;25.00;89.50
5011;DHT22;2524;54.364;10.072;2023-06-22T12:43:46;25.00;87.80
5011;DHT22;2524;54.364;10.072;2023-06-22T12:46:12;25.00;87.20
5011;DHT22;2524;54.364;10.072;2023-06-22T12:48:37;25.00;85.10
5011;DHT22;2524;54.364;10.072;2023-06-22T12:51:08;25.00;85.00
5011;DHT22;2524;54.364;10.072;2023-06-22T12:53:34;25.00;84.80
5011;DHT22;2524;54.364;10.072;2023-06-22T12:56:00;25.10;84.70
5011;DHT22;2524;54.364;10.072;2023-06-22T12:58:25;25.10;85.00
5011;DHT22;2524;54.364;10.072;2023-06-22T13:00:51;25.20;84.50
5011;DHT22;2524;54.364;10.072;2023-06-22T13:03:16;25.20;83.80
5011;DHT22;2524;54.364;10.072;2023-06-22T13:05:42;25.30;82.90
5011;DHT22;2524;54.364;10.072;2023-06-22T13:08:07;25.40;82.70
5011;DHT22;2524;54.364;10.072;2023-06-22T13:10:33;25.50;81.90
5011;DHT22;2524;54.364;10.072;2023-06-22T13:12:59;25.60;81.60
5011;DHT22;2524;54.364;10.072;2023-06-22T13:15:29;25.70;81.50
5011;DHT22;2524;54.364;10.072;2023-06-22T13:17:55;25.70;81.10
5011;DHT22;2524;54.364;10.072;2023-06-22T13:20:21;25.70;80.50
5011;DHT22;2524;54.364;10.072;2023-06-22T13:22:46;25.70;79.50
5011;DHT22;2524;54.364;10.072;2023-06-22T13:25:12;25.70;79.00
5011;DHT22;2524;54.364;10.072;2023-06-22T13:27:39;25.80;79.10
5011;DHT22;2524;54.364;10.072;2023-06-22T13:30:06;25.80;78.90
5011;DHT22;2524;54.364;10.072;2023-06-22T13:32:31;25.90;78.30
5011;DHT22;2524;54.364;10.072;2023-06-22T13:34:57;26.00;77.90
5011;DHT22;2524;54.364;10.072;2023-06-22T13:37:23;26.10;77.70
5011;DHT22;2524;54.364;10.072;2023-06-22T13:39:48;26.10;76.80
5011;DHT22;2524;54.364;10.072;2023-06-22T13:42:14;26.00;76.20
5011;DHT22;2524;54.364;10.072;2023-06-22T13:44:40;26.10;76.30
5011;DHT22;2524;54.364;10.072;2023-06-22T13:47:06;26.10;75.90
5011;DHT22;2524;54.364;10.072;2023-06-22T13:49:32;26.20;74.90
5011;DHT22;2524;54.364;10.072;2023-06-22T13:51:57;26.20;74.00
5011;DHT22;2524;54.364;10.072;2023-06-22T13:54:23;26.20;73.50
5011;DHT22;2524;54.364;10.072;2023-06-22T13:56:48;26.10;73.20
5011;DHT22;2524;54.364;10.072;2023-06-22T13:59:14;26.10;72.30
5011;DHT22;2524;54.364;10.072;2023-06-22T14:01:39;26.00;71.40
5011;DHT22;2524;54.364;10.072;2023-06-22T14:04:06;26.00;71.60
5011;DHT22;2524;54.364;10.072;2023-06-22T14:06:31;26.00;71.60
5011;DHT22;2524;54.364;10.072;2023-06-22T14:08:57;26.00;71.20
5011;DHT22;2524;54.364;10.072;2023-06-22T14:11:24;26.00;70.30
5011;DHT22;2524;54.364;10.072;2023-06-22T14:13:49;25.90;69.80
5011;DHT22;2524;54.364;10.072;2023-06-22T14:16:15;25.80;70.20
5011;DHT22;2524;54.364;10.072;2023-06-22T14:18:40;25.80;70.30
5011;DHT22;2524;54.364;10.072;2023-06-22T14:21:07;25.90;70.60
5011;DHT22;2524;54.364;10.072;2023-06-22T14:23:32;25.90;70.80
5011;DHT22;2524;54.364;10.072;2023-06-22T14:25:58;26.00;70.00
5011;DHT22;2524;54.364;10.072;2023-06-22T14:28:23;25.90;70.10
5011;DHT22;2524;54.364;10.072;2023-06-22T14:30:49;25.90;69.20
5011;DHT22;2524;54.364;10.072;2023-06-22T14:33:14;25.90;68.80
5011;DHT22;2524;54.364;10.072;2023-06-22T14:35:40;25.80;68.90
5011;DHT22;2524;54.364;10.072;2023-06-22T14:38:06;25.80;69.20
5011;DHT22;2524;54.364;10.072;2023-06-22T14:40:31;25.90;69.20
5011;DHT22;2524;54.364;10.072;2023-06-22T14:42:57;25.80;69.00
5011;DHT22;2524;54.364;10.072;2023-06-22T14:45:23;25.90;69.10
5011;DHT22;2524;54.364;10.072;2023-06-22T14:47:49;25.80;69.00
5011;DHT22;2524;54.364;10.072;2023-06-22T14:50:15;25.80;69.10
5011;DHT22;2524;54.364;10.072;2023-06-22T14:52:40;25.80;68.20
5011;DHT22;2524;54.364;10.072;2023-06-22T14:55:06;25.80;67.90
5011;DHT22;2524;54.364;10.072;2023-06-22T14:57:32;25.70;67.40
5011;DHT22;2524;54.364;10.072;2023-06-22T14:59:58;25.70;66.90
5011;DHT22;2524;54.364;10.072;2023-06-22T15:02:23;25.50;67.30
5011;DHT22;2524;54.364;10.072;2023-06-22T15:04:49;25.40;66.60
5011;DHT22;2524;54.364;10.072;2023-06-22T15:07:15;25.40;66.70
5011;DHT22;2524;54.364;10.072;2023-06-22T15:09:40;25.20;66.60
5011;DHT22;2524;54.364;10.072;2023-06-22T15:12:08;25.20;66.90
5011;DHT22;2524;54.364;10.072;2023-06-22T15:14:38;25.10;67.30
5011;DHT22;2524;54.364;10.072;2023-06-22T15:17:05;25.10;67.50
5011;DHT22;2524;54.364;10.072;2023-06-22T15:19:30;25.10;67.60
5011;DHT22;2524;54.364;10.072;2023-06-22T15:21:56;25.20;67.50
5011;DHT22;2524;54.364;10.072;2023-06-22T15:24:22;25.00;66.80
5011;DHT22;2524;54.364;10.072;2023-06-22T15:26:47;25.00;66.80
5011;DHT22;2524;54.364;10.072;2023-06-22T15:29:13;25.00;66.90
5011;DHT22;2524;54.364;10.072;2023-06-22T15:31:38;25.10;67.50
5011;DHT22;2524;54.364;10.072;2023-06-22T15:34:04;25.10;67.50
5011;DHT22;2524;54.364;10.072;2023-06-22T15:36:29;25.10;67.80
5011;DHT22;2524;54.364;10.072;2023-06-22T15:38:55;25.20;67.60
5011;DHT22;2524;54.364;10.072;2023-06-22T15:41:20;25.20;67.30
5011;DHT22;2524;54.364;10.072;2023-06-22T15:43:46;25.10;67.10
5011;DHT22;2524;54.364;10.072;2023-06-22T15:46:11;25.00;66.90
5011;DHT22;2524;54.364;10.072;2023-06-22T15:48:37;24.90;67.10